sensor_id;sensor_type;location;lat;lon;timestamp;pressure;altitude;pressure_sealevel;temperature;humidity
7407;BME280;3745;56.964;24.128;2023-12-20T00:01:47;99673.41;;;4.12;100.00
7407;BME280;3745;56.964;24.128;2023-12-20T00:04:12;99654.78;;;4.01;100.00
7407;BME280;3745;56.964;24.128;2023-12-20T00:06:38;99684.22;;;4.11;100.00
7407;BME280;3745;56.964;24.128;2023-12-20T00:09:04;99480.84;;;2.97;100.00
7407;BME280;3745;56.964;24.128;2023-12-20T00:11:29;99661.44;;;3.99;100.00
7407;BME280;3745;56.964;24.128;2023-12-20T00:13:55;99681.63;;;4.08;100.00
7407;BME280;3745;56.964;24.128;2023-12-20T00:16:20;99602.06;;;3.54;100.00
7407;BME280;3745;56.964;24.128;2023-12-20T00:18:47;99679.88;;;4.04;100.00
7407;BME280;3745;56.964;24.128;2023-12-20T00:21:12;99644.19;;;3.72;100.00
7407;BME280;3745;56.964;24.128;2023-12-20T00:23:38;99671.31;;;3.93;100.00
7407;BME280;3745;56.964;24.128;2023-12-20T00:26:04;99458.31;;;2.59;100.00
7407;BME280;3745;56.964;24.128;2023-12-20T00:28:30;99674.59;;;3.92;100.00
7407;BME280;3745;56.964;24.128;2023-12-20T00:30:55;99482.94;;;2.80;100.00
7407;BME280;3745;56.964;24.128;2023-12-20T00:33:21;99664.53;;;3.89;100.00
7407;BME280;3745;56.964;24.128;2023-12-20T00:35:46;99671.31;;;3.93;100.00
7407;BME280;3745;56.964;24.128;2023-12-20T00:38:12;99584.03;;;3.30;100.00
7407;BME280;3745;56.964;24.128;2023-12-20T00:40:37;99607.72;;;3.44;100.00
7407;BME280;3745;56.964;24.128;2023-12-20T00:43:03;99675.91;;;3.74;100.00
7407;BME280;3745;56.964;24.128;2023-12-20T00:45:29;99688.50;;;3.79;100.00
7407;BME280;3745;56.964;24.128;2023-12-20T00:47:55;99685.03;;;3.72;100.00
7407;BME280;3745;56.964;24.128;2023-12-20T00:50:21;99586.81;;;3.06;100.00
7407;BME280;3745;56.964;24.128;2023-12-20T00:52:47;99612.38;;;3.31;100.00
7407;BME280;3745;56.964;24.128;2023-12-20T00:55:13;99682.53;;;3.72;100.00
7407;BME280;3745;56.964;24.128;2023-12-20T00:57:39;99572.97;;;3.19;100.00
7407;BME280;3745;56.964;24.128;2023-12-20T01:00:05;99610.91;;;3.39;100.00
7407;BME280;3745;56.964;24.128;2023-12-20T01:02:31;99667.44;;;3.69;100.00
7407;BME280;3745;56.964;24.128;2023-12-20T01:04:56;99674.28;;;3.76;100.00
7407;BME280;3745;56.964;24.128;2023-12-20T01:07:22;99674.16;;;3.70;100.00
7407;BME280;3745;56.964;24.128;2023-12-20T01:09:48;99676.69;;;3.72;100.00
7407;BME280;3745;56.964;24.128;2023-12-20T01:12:13;99618.50;;;3.43;100.00
7407;BME280;3745;56.964;24.128;2023-12-20T01:14:39;99562.06;;;3.17;100.00
7407;BME280;3745;56.964;24.128;2023-12-20T01:17:04;99659.34;;;3.79;100.00
7407;BME280;3745;56.964;24.128;2023-12-20T01:19:30;99588.25;;;3.31;100.00
7407;BME280;3745;56.964;24.128;2023-12-20T01:21:56;99650.75;;;3.68;100.00
7407;BME280;3745;56.964;24.128;2023-12-20T01:24:21;99625.56;;;3.59;100.00
7407;BME280;3745;56.964;24.128;2023-12-20T01:26:47;99600.97;;;3.42;100.00
7407;BME280;3745;56.964;24.128;2023-12-20T01:29:13;99622.97;;;3.56;100.00
7407;BME280;3745;56.964;24.128;2023-12-20T01:31:39;99654.34;;;3.79;100.00
7407;BME280;3745;56.964;24.128;2023-12-20T01:34:06;99569.81;;;3.26;100.00
7407;BME280;3745;56.964;24.128;2023-12-20T01:36:32;99644.47;;;3.86;100.00
7407;BME280;3745;56.964;24.128;2023-12-20T01:38:57;99604.66;;;3.57;100.00
7407;BME280;3745;56.964;24.128;2023-12-20T01:41:23;99653.66;;;3.87;100.00
7407;BME280;3745;56.964;24.128;2023-12-20T01:43:49;99642.75;;;3.84;100.00
7407;BME280;3745;56.964;24.128;2023-12-20T01:46:15;99632.63;;;3.78;100.00
7407;BME280;3745;56.964;24.128;2023-12-20T01:48:41;99642.94;;;3.92;100.00
7407;BME280;3745;56.964;24.128;2023-12-20T01:51:07;99570.22;;;3.44;100.00
7407;BME280;3745;56.964;24.128;2023-12-20T01:53:33;99642.97;;;3.94;100.00
7407;BME280;3745;56.964;24.128;2023-12-20T01:55:59;99628.78;;;3.94;100.00
7407;BME280;3745;56.964;24.128;2023-12-20T01:58:26;99624.56;;;3.92;100.00
7407;BME280;3745;56.964;24.128;2023-12-20T02:00:52;99568.63;;;3.49;100.00
7407;BME280;3745;56.964;24.128;2023-12-20T02:03:17;99571.94;;;3.48;100.00
7407;BME280;3745;56.964;24.128;2023-12-20T02:05:44;99565.00;;;3.35;100.00
7407;BME280;3745;56.964;24.128;2023-12-20T02:08:11;99620.81;;;3.71;100.00
7407;BME280;3745;56.964;24.128;2023-12-20T02:10:38;99518.38;;;3.00;100.00
7407;BME280;3745;56.964;24.128;2023-12-20T02:13:04;99586.66;;;3.36;100.00
7407;BME280;3745;56.964;24.128;2023-12-20T02:15:30;99591.81;;;3.42;100.00
7407;BME280;3745;56.964;24.128;2023-12-20T02:17:55;99601.94;;;3.48;100.00
7407;BME280;3745;56.964;24.128;2023-12-20T02:20:21;99645.75;;;3.68;100.00
7407;BME280;3745;56.964;24.128;2023-12-20T02:22:47;99570.63;;;3.26;100.00
7407;BME280;3745;56.964;24.128;2023-12-20T02:25:12;99641.63;;;3.70;100.00
7407;BME280;3745;56.964;24.128;2023-12-20T02:27:39;99590.16;;;3.41;100.00
7407;BME280;3745;56.964;24.128;2023-12-20T02:30:06;99522.50;;;2.98;100.00
7407;BME280;3745;56.964;24.128;2023-12-20T02:32:31;99581.47;;;3.27;100.00
7407;BME280;3745;56.964;24.128;2023-12-20T02:34:57;99567.97;;;3.19;100.00
7407;BME280;3745;56.964;24.128;2023-12-20T02:37:23;99584.81;;;3.26;100.00
7407;BME280;3745;56.964;24.128;2023-12-20T02:39:49;99529.03;;;2.93;100.00
7407;BME280;3745;56.964;24.128;2023-12-20T02:42:15;99606.59;;;3.33;100.00
7407;BME280;3745;56.964;24.128;2023-12-20T02:44:40;99608.16;;;3.28;100.00
7407;BME280;3745;56.964;24.128;2023-12-20T02:47:06;99575.25;;;3.10;100.00
7407;BME280;3745;56.964;24.128;2023-12-20T02:49:31;99565.91;;;3.03;100.00
7407;BME280;3745;56.964;24.128;2023-12-20T02:51:57;99580.84;;;3.00;100.00
7407;BME280;3745;56.964;24.128;2023-12-20T02:54:22;99605.41;;;3.17;100.00
7407;BME280;3745;56.964;24.128;2023-12-20T02:56:48;99491.22;;;2.43;100.00
7407;BME280;3745;56.964;24.128;2023-12-20T02:59:14;99535.16;;;2.69;100.00
7407;BME280;3745;56.964;24.128;2023-12-20T03:01:44;99511.59;;;2.58;100.00
7407;BME280;3745;56.964;24.128;2023-12-20T03:04:10;99589.19;;;3.02;100.00
7407;BME280;3745;56.964;24.128;2023-12-20T03:06:36;99590.09;;;3.04;100.00
7407;BME280;3745;56.964;24.128;2023-12-20T03:09:02;99590.91;;;3.03;100.00
7407;BME280;3745;56.964;24.128;2023-12-20T03:11:29;99555.19;;;2.72;100.00
7407;BME280;3745;56.964;24.128;2023-12-20T03:13:55;99504.38;;;2.36;100.00
7407;BME280;3745;56.964;24.128;2023-12-20T03:16:21;99548.13;;;2.56;100.00
7407;BME280;3745;56.964;24.128;2023-12-20T03:18:47;99574.25;;;2.69;100.00
7407;BME280;3745;56.964;24.128;2023-12-20T03:21:12;99609.69;;;2.87;100.00
7407;BME280;3745;56.964;24.128;2023-12-20T03:23:38;99542.75;;;2.41;100.00
7407;BME280;3745;56.964;24.128;2023-12-20T03:26:07;99539.47;;;2.42;100.00
7407;BME280;3745;56.964;24.128;2023-12-20T03:28:33;99610.38;;;2.82;100.00
7407;BME280;3745;56.964;24.128;2023-12-20T03:30:58;99599.16;;;2.66;100.00
7407;BME280;3745;56.964;24.128;2023-12-20T03:33:24;99583.09;;;2.56;100.00
7407;BME280;3745;56.964;24.128;2023-12-20T03:35:50;99608.53;;;2.74;100.00
7407;BME280;3745;56.964;24.128;2023-12-20T03:38:16;99620.13;;;2.72;100.00
7407;BME280;3745;56.964;24.128;2023-12-20T03:40:42;99589.84;;;2.60;100.00
7407;BME280;3745;56.964;24.128;2023-12-20T03:43:07;99566.09;;;2.43;100.00
7407;BME280;3745;56.964;24.128;2023-12-20T03:45:33;99476.41;;;1.84;100.00
7407;BME280;3745;56.964;24.128;2023-12-20T03:47:59;99592.91;;;2.50;100.00
7407;BME280;3745;56.964;24.128;2023-12-20T03:50:25;99596.06;;;2.43;100.00
7407;BME280;3745;56.964;24.128;2023-12-20T03:52:51;99508.28;;;1.94;100.00
7407;BME280;3745;56.964;24.128;2023-12-20T03:55:17;99580.69;;;2.28;100.00
7407;BME280;3745;56.964;24.128;2023-12-20T03:57:42;99565.47;;;2.19;100.00
7407;BME280;3745;56.964;24.128;2023-12-20T04:00:08;99644.97;;;2.66;100.00
7407;BME280;3745;56.964;24.128;2023-12-20T04:02:39;99651.50;;;2.61;100.00
7407;BME280;3745;56.964;24.128;2023-12-20T04:05:06;99608.34;;;2.36;100.00
7407;BME280;3745;56.964;24.128;2023-12-20T04:07:32;99648.00;;;2.56;100.00
7407;BME280;3745;56.964;24.128;2023-12-20T04:09:57;99642.00;;;2.50;100.00
7407;BME280;3745;56.964;24.128;2023-12-20T04:12:27;99615.06;;;2.38;100.00
7407;BME280;3745;56.964;24.128;2023-12-20T04:14:52;99614.19;;;2.36;100.00
7407;BME280;3745;56.964;24.128;2023-12-20T04:17:18;99602.34;;;2.29;100.00
7407;BME280;3745;56.964;24.128;2023-12-20T04:19:45;99603.19;;;2.30;100.00
7407;BME280;3745;56.964;24.128;2023-12-20T04:22:10;99612.56;;;2.38;100.00
7407;BME280;3745;56.964;24.128;2023-12-20T04:24:36;99484.34;;;1.71;100.00
7407;BME280;3745;56.964;24.128;2023-12-20T04:27:02;99669.75;;;2.92;100.00
7407;BME280;3745;56.964;24.128;2023-12-20T04:29:28;99653.72;;;2.84;100.00
7407;BME280;3745;56.964;24.128;2023-12-20T04:31:53;99676.50;;;2.96;100.00
7407;BME280;3745;56.964;24.128;2023-12-20T04:34:19;99665.78;;;3.00;100.00
7407;BME280;3745;56.964;24.128;2023-12-20T04:36:45;99618.44;;;2.71;100.00
7407;BME280;3745;56.964;24.128;2023-12-20T04:39:12;99645.50;;;2.88;100.00
7407;BME280;3745;56.964;24.128;2023-12-20T04:41:38;99643.72;;;2.84;100.00
7407;BME280;3745;56.964;24.128;2023-12-20T04:44:04;99645.56;;;2.91;100.00
7407;BME280;3745;56.964;24.128;2023-12-20T04:46:30;99667.63;;;3.07;100.00
7407;BME280;3745;56.964;24.128;2023-12-20T04:48:55;99666.88;;;3.09;100.00
7407;BME280;3745;56.964;24.128;2023-12-20T04:51:21;99647.56;;;3.04;100.00
7407;BME280;3745;56.964;24.128;2023-12-20T04:53:47;99656.16;;;3.15;100.00
7407;BME280;3745;56.964;24.128;2023-12-20T04:56:12;99664.47;;;3.14;100.00
7407;BME280;3745;56.964;24.128;2023-12-20T04:58:39;99571.50;;;2.58;100.00
7407;BME280;3745;56.964;24.128;2023-12-20T05:01:06;99669.59;;;3.20;100.00
7407;BME280;3745;56.964;24.128;2023-12-20T05:03:32;99664.72;;;3.23;100.00
7407;BME280;3745;56.964;24.128;2023-12-20T05:05:58;99617.38;;;2.96;100.00
7407;BME280;3745;56.964;24.128;2023-12-20T05:08:24;99624.03;;;2.96;100.00
7407;BME280;3745;56.964;24.128;2023-12-20T05:10:51;99664.78;;;3.26;100.00
7407;BME280;3745;56.964;24.128;2023-12-20T05:13:17;99659.72;;;3.23;100.00
7407;BME280;3745;56.964;24.128;2023-12-20T05:15:42;99665.88;;;3.37;100.00
7407;BME280;3745;56.964;24.128;2023-12-20T05:18:08;99541.63;;;2.61;100.00
7407;BME280;3745;56.964;24.128;2023-12-20T05:20:33;99653.16;;;3.28;100.00
7407;BME280;3745;56.964;24.128;2023-12-20T05:22:59;99656.47;;;3.27;100.00
7407;BME280;3745;56.964;24.128;2023-12-20T05:25:25;99658.16;;;3.28;100.00
7407;BME280;3745;56.964;24.128;2023-12-20T05:27:50;99548.22;;;2.59;100.00
7407;BME280;3745;56.964;24.128;2023-12-20T05:30:16;99588.75;;;2.84;100.00
7407;BME280;3745;56.964;24.128;2023-12-20T05:32:42;99489.91;;;2.23;100.00
7407;BME280;3745;56.964;24.128;2023-12-20T05:35:07;99630.97;;;3.06;100.00
7407;BME280;3745;56.964;24.128;2023-12-20T05:37:33;99509.28;;;2.33;100.00
7407;BME280;3745;56.964;24.128;2023-12-20T05:39:59;99568.56;;;2.74;100.00
7407;BME280;3745;56.964;24.128;2023-12-20T05:42:25;99661.53;;;3.30;100.00
7407;BME280;3745;56.964;24.128;2023-12-20T05:44:50;99595.69;;;2.94;100.00
7407;BME280;3745;56.964;24.128;2023-12-20T05:47:16;99663.22;;;3.31;100.00
7407;BME280;3745;56.964;24.128;2023-12-20T05:49:42;99587.09;;;2.83;100.00
7407;BME280;3745;56.964;24.128;2023-12-20T05:52:08;99634.47;;;3.14;100.00
7407;BME280;3745;56.964;24.128;2023-12-20T05:54:33;99651.31;;;3.21;100.00
7407;BME280;3745;56.964;24.128;2023-12-20T05:56:59;99672.44;;;3.34;100.00
7407;BME280;3745;56.964;24.128;2023-12-20T05:59:26;99578.47;;;2.71;100.00
7407;BME280;3745;56.964;24.128;2023-12-20T06:01:51;99666.47;;;3.27;100.00
7407;BME280;3745;56.964;24.128;2023-12-20T06:04:17;99576.88;;;2.73;100.00
7407;BME280;3745;56.964;24.128;2023-12-20T06:06:43;99619.94;;;2.98;100.00
7407;BME280;3745;56.964;24.128;2023-12-20T06:09:09;99659.88;;;3.29;100.00
7407;BME280;3745;56.964;24.128;2023-12-20T06:11:34;99604.72;;;2.89;100.00
7407;BME280;3745;56.964;24.128;2023-12-20T06:14:01;99617.59;;;3.04;100.00
7407;BME280;3745;56.964;24.128;2023-12-20T06:16:27;99661.53;;;3.30;100.00
7407;BME280;3745;56.964;24.128;2023-12-20T06:18:52;99563.50;;;2.71;100.00
7407;BME280;3745;56.964;24.128;2023-12-20T06:21:18;99659.88;;;3.29;100.00
7407;BME280;3745;56.964;24.128;2023-12-20T06:23:44;99581.47;;;2.91;100.00
7407;BME280;3745;56.964;24.128;2023-12-20T06:26:09;99562.13;;;2.83;100.00
7407;BME280;3745;56.964;24.128;2023-12-20T06:28:35;99662.72;;;3.44;100.00
7407;BME280;3745;56.964;24.128;2023-12-20T06:31:01;99665.22;;;3.44;100.00
7407;BME280;3745;56.964;24.128;2023-12-20T06:33:28;99618.75;;;3.18;100.00
7407;BME280;3745;56.964;24.128;2023-12-20T06:35:56;99629.53;;;3.17;100.00
7407;BME280;3745;56.964;24.128;2023-12-20T06:38:22;99606.63;;;2.99;100.00
7407;BME280;3745;56.964;24.128;2023-12-20T06:40:48;99572.09;;;2.83;100.00
7407;BME280;3745;56.964;24.128;2023-12-20T06:43:14;99689.47;;;3.48;100.00
7407;BME280;3745;56.964;24.128;2023-12-20T06:45:41;99667.53;;;3.37;100.00
7407;BME280;3745;56.964;24.128;2023-12-20T06:48:07;99644.47;;;3.14;100.00
7407;BME280;3745;56.964;24.128;2023-12-20T06:50:33;99691.69;;;3.36;100.00
7407;BME280;3745;56.964;24.128;2023-12-20T06:52:58;99699.25;;;3.39;100.00
7407;BME280;3745;56.964;24.128;2023-12-20T06:55:24;99644.47;;;3.14;100.00
7407;BME280;3745;56.964;24.128;2023-12-20T06:57:50;99688.44;;;3.40;100.00
7407;BME280;3745;56.964;24.128;2023-12-20T07:00:16;99700.22;;;3.44;100.00
7407;BME280;3745;56.964;24.128;2023-12-20T07:02:43;99684.94;;;3.32;100.00
7407;BME280;3745;56.964;24.128;2023-12-20T07:05:09;99671.47;;;3.27;100.00
7407;BME280;3745;56.964;24.128;2023-12-20T07:07:34;99674.72;;;3.24;100.00
7407;BME280;3745;56.964;24.128;2023-12-20T07:10:00;99704.53;;;3.51;100.00
7407;BME280;3745;56.964;24.128;2023-12-20T07:12:26;99708.59;;;3.46;100.00
7407;BME280;3745;56.964;24.128;2023-12-20T07:14:51;99708.53;;;3.43;100.00
7407;BME280;3745;56.964;24.128;2023-12-20T07:17:17;99663.75;;;3.18;100.00
7407;BME280;3745;56.964;24.128;2023-12-20T07:19:43;99564.75;;;2.54;100.00
7407;BME280;3745;56.964;24.128;2023-12-20T07:22:08;99632.50;;;3.01;100.00
7407;BME280;3745;56.964;24.128;2023-12-20T07:24:34;99627.38;;;2.95;100.00
7407;BME280;3745;56.964;24.128;2023-12-20T07:27:00;99707.75;;;3.46;100.00
7407;BME280;3745;56.964;24.128;2023-12-20T07:29:26;99715.38;;;3.50;100.00
7407;BME280;3745;56.964;24.128;2023-12-20T07:31:55;99715.38;;;3.50;100.00
7407;BME280;3745;56.964;24.128;2023-12-20T07:34:21;99648.66;;;3.13;100.00
7407;BME280;3745;56.964;24.128;2023-12-20T07:36:46;99720.44;;;3.53;100.00
7407;BME280;3745;56.964;24.128;2023-12-20T07:39:13;99710.44;;;3.53;100.00
7407;BME280;3745;56.964;24.128;2023-12-20T07:41:39;99718.00;;;3.56;100.00
7407;BME280;3745;56.964;24.128;2023-12-20T07:44:04;99558.28;;;2.62;100.00
7407;BME280;3745;56.964;24.128;2023-12-20T07:46:30;99656.47;;;3.27;100.00
7407;BME280;3745;56.964;24.128;2023-12-20T07:48:57;99634.47;;;3.14;100.00
7407;BME280;3745;56.964;24.128;2023-12-20T07:51:23;99693.59;;;3.46;100.00
7407;BME280;3745;56.964;24.128;2023-12-20T07:53:48;99730.03;;;3.72;100.00
7407;BME280;3745;56.964;24.128;2023-12-20T07:56:18;99724.38;;;3.79;100.00
7407;BME280;3745;56.964;24.128;2023-12-20T07:58:45;99723.59;;;3.82;100.00
7407;BME280;3745;56.964;24.128;2023-12-20T08:01:11;99692.31;;;3.63;100.00
7407;BME280;3745;56.964;24.128;2023-12-20T08:03:38;99679.50;;;3.50;100.00
7407;BME280;3745;56.964;24.128;2023-12-20T08:06:04;99700.66;;;3.62;100.00
7407;BME280;3745;56.964;24.128;2023-12-20T08:08:31;99683.72;;;3.52;100.00
7407;BME280;3745;56.964;24.128;2023-12-20T08:10:56;99729.38;;;3.79;100.00
7407;BME280;3745;56.964;24.128;2023-12-20T08:13:24;99697.25;;;3.60;100.00
7407;BME280;3745;56.964;24.128;2023-12-20T08:15:52;99710.88;;;3.71;100.00
7407;BME280;3745;56.964;24.128;2023-12-20T08:18:18;99729.53;;;3.86;100.00
7407;BME280;3745;56.964;24.128;2023-12-20T08:20:44;99737.16;;;3.92;100.00
7407;BME280;3745;56.964;24.128;2023-12-20T08:23:10;99548.00;;;2.85;100.00
7407;BME280;3745;56.964;24.128;2023-12-20T08:25:36;99736.56;;;4.02;100.00
7407;BME280;3745;56.964;24.128;2023-12-20T08:28:02;99739.94;;;4.04;100.00
7407;BME280;3745;56.964;24.128;2023-12-20T08:30:28;99713.03;;;3.94;100.00
7407;BME280;3745;56.964;24.128;2023-12-20T08:32:55;99734.19;;;4.08;100.00
7407;BME280;3745;56.964;24.128;2023-12-20T08:35:20;99724.94;;;4.04;100.00
7407;BME280;3745;56.964;24.128;2023-12-20T08:37:46;99730.06;;;4.10;100.00
7407;BME280;3745;56.964;24.128;2023-12-20T08:40:11;99710.63;;;3.97;100.00
7407;BME280;3745;56.964;24.128;2023-12-20T08:42:37;99686.06;;;3.80;100.00
7407;BME280;3745;56.964;24.128;2023-12-20T08:45:04;99738.41;;;4.09;100.00
7407;BME280;3745;56.964;24.128;2023-12-20T08:47:30;99707.81;;;3.84;100.00
7407;BME280;3745;56.964;24.128;2023-12-20T08:49:56;99609.88;;;3.29;100.00
7407;BME280;3745;56.964;24.128;2023-12-20T08:52:22;99732.38;;;4.01;100.00
7407;BME280;3745;56.964;24.128;2023-12-20T08:54:49;99719.91;;;4.04;100.00
7407;BME280;3745;56.964;24.128;2023-12-20T08:57:21;99618.59;;;3.46;100.00
7407;BME280;3745;56.964;24.128;2023-12-20T08:59:51;99484.22;;;2.63;100.00
7407;BME280;3745;56.964;24.128;2023-12-20T09:02:16;99718.38;;;4.09;100.00
7407;BME280;3745;56.964;24.128;2023-12-20T09:04:43;99673.63;;;3.83;100.00
7407;BME280;3745;56.964;24.128;2023-12-20T09:07:23;99594.44;;;3.47;100.00
7407;BME280;3745;56.964;24.128;2023-12-20T09:09:49;99710.28;;;4.22;100.00
7407;BME280;3745;56.964;24.128;2023-12-20T09:12:15;99504.19;;;2.99;100.00
7407;BME280;3745;56.964;24.128;2023-12-20T09:14:40;99651.16;;;3.87;100.00
7407;BME280;3745;56.964;24.128;2023-12-20T09:17:06;99701.97;;;4.23;100.00
7407;BME280;3745;56.964;24.128;2023-12-20T09:19:34;99625.69;;;3.65;100.00
7407;BME280;3745;56.964;24.128;2023-12-20T09:22:03;99544.56;;;3.17;100.00
7407;BME280;3745;56.964;24.128;2023-12-20T09:24:34;99635.75;;;3.68;100.00
7407;BME280;3745;56.964;24.128;2023-12-20T09:27:02;99699.34;;;4.17;100.00
7407;BME280;3745;56.964;24.128;2023-12-20T09:29:28;99467.28;;;2.86;100.00
7407;BME280;3745;56.964;24.128;2023-12-20T09:31:54;99658.00;;;3.94;100.00
7407;BME280;3745;56.964;24.128;2023-12-20T09:34:24;99713.56;;;4.18;100.00
7407;BME280;3745;56.964;24.128;2023-12-20T09:36:52;99710.09;;;4.13;100.00
7407;BME280;3745;56.964;24.128;2023-12-20T09:39:19;99656.03;;;3.80;100.00
7407;BME280;3745;56.964;24.128;2023-12-20T09:42:00;99716.81;;;4.14;100.00
7407;BME280;3745;56.964;24.128;2023-12-20T09:44:27;99588.31;;;3.34;100.00
7407;BME280;3745;56.964;24.128;2023-12-20T09:46:55;99587.00;;;3.51;100.00
7407;BME280;3745;56.964;24.128;2023-12-20T09:49:21;99411.19;;;2.37;100.00
7407;BME280;3745;56.964;24.128;2023-12-20T09:51:48;99593.50;;;3.43;100.00
7407;BME280;3745;56.964;24.128;2023-12-20T09:54:17;99522.66;;;3.04;100.00
7407;BME280;3745;56.964;24.128;2023-12-20T09:56:43;99672.94;;;3.91;100.00
7407;BME280;3745;56.964;24.128;2023-12-20T09:59:09;99500.75;;;2.94;100.00
7407;BME280;3745;56.964;24.128;2023-12-20T10:01:39;99687.50;;;4.08;100.00
7407;BME280;3745;56.964;24.128;2023-12-20T10:04:06;99674.94;;;4.07;100.00
7407;BME280;3745;56.964;24.128;2023-12-20T10:06:36;99646.28;;;3.93;100.00
7407;BME280;3745;56.964;24.128;2023-12-20T10:09:02;99556.59;;;3.33;100.00
7407;BME280;3745;56.964;24.128;2023-12-20T10:11:29;99651.28;;;3.93;100.00
7407;BME280;3745;56.964;24.128;2023-12-20T10:14:03;99514.50;;;3.14;100.00
7407;BME280;3745;56.964;24.128;2023-12-20T10:16:29;99641.16;;;3.87;100.00
7407;BME280;3745;56.964;24.128;2023-12-20T10:18:56;99575.41;;;3.53;100.00
7407;BME280;3745;56.964;24.128;2023-12-20T10:21:22;99489.19;;;2.97;100.00
7407;BME280;3745;56.964;24.128;2023-12-20T10:23:48;99526.75;;;3.39;100.00
7407;BME280;3745;56.964;24.128;2023-12-20T10:26:25;99494.66;;;3.20;100.00
7407;BME280;3745;56.964;24.128;2023-12-20T10:29:04;99605.50;;;3.97;100.00
7407;BME280;3745;56.964;24.128;2023-12-20T10:31:34;99626.69;;;4.14;100.00
7407;BME280;3745;56.964;24.128;2023-12-20T10:34:01;99598.25;;;4.09;100.00
7407;BME280;3745;56.964;24.128;2023-12-20T10:36:30;99578.78;;;3.96;100.00
7407;BME280;3745;56.964;24.128;2023-12-20T10:38:56;99594.97;;;4.13;100.00
7407;BME280;3745;56.964;24.128;2023-12-20T10:41:28;99539.38;;;3.86;100.00
7407;BME280;3745;56.964;24.128;2023-12-20T10:44:02;99595.00;;;4.16;100.00
7407;BME280;3745;56.964;24.128;2023-12-20T10:46:30;99600.31;;;4.31;100.00
7407;BME280;3745;56.964;24.128;2023-12-20T10:48:56;99380.91;;;2.97;100.00
7407;BME280;3745;56.964;24.128;2023-12-20T10:51:23;99606.38;;;4.42;100.00
7407;BME280;3745;56.964;24.128;2023-12-20T10:53:52;99556.72;;;4.20;100.00
7407;BME280;3745;56.964;24.128;2023-12-20T10:56:18;99603.25;;;4.54;100.00
7407;BME280;3745;56.964;24.128;2023-12-20T10:58:45;99555.19;;;4.28;100.00
7407;BME280;3745;56.964;24.128;2023-12-20T11:01:17;99601.00;;;4.67;100.00
7407;BME280;3745;56.964;24.128;2023-12-20T11:03:52;99604.41;;;4.72;100.00
7407;BME280;3745;56.964;24.128;2023-12-20T11:14:46;99365.13;;;3.41;100.00
7407;BME280;3745;56.964;24.128;2023-12-20T11:17:15;99321.28;;;3.15;100.00
7407;BME280;3745;56.964;24.128;2023-12-20T11:22:29;99533.16;;;4.55;100.00
7407;BME280;3745;56.964;24.128;2023-12-20T11:25:10;99448.72;;;4.00;100.00
7407;BME280;3745;56.964;24.128;2023-12-20T11:27:41;99491.63;;;4.20;100.00
7407;BME280;3745;56.964;24.128;2023-12-20T11:30:12;99415.91;;;3.83;100.00
7407;BME280;3745;56.964;24.128;2023-12-20T11:32:40;99413.22;;;3.73;100.00
7407;BME280;3745;56.964;24.128;2023-12-20T11:37:38;99392.06;;;3.57;100.00
7407;BME280;3745;56.964;24.128;2023-12-20T11:40:12;99560.03;;;4.64;100.00
7407;BME280;3745;56.964;24.128;2023-12-20T11:42:41;99564.03;;;4.54;100.00
7407;BME280;3745;56.964;24.128;2023-12-20T11:45:18;99327.81;;;3.07;100.00
7407;BME280;3745;56.964;24.128;2023-12-20T11:47:50;99284.03;;;2.84;100.00
7407;BME280;3745;56.964;24.128;2023-12-20T11:50:22;99329.53;;;3.11;100.00
7407;BME280;3745;56.964;24.128;2023-12-20T11:52:49;99568.25;;;4.57;100.00
7407;BME280;3745;56.964;24.128;2023-12-20T11:55:15;99542.19;;;4.47;100.00
7407;BME280;3745;56.964;24.128;2023-12-20T11:57:42;99559.28;;;4.69;100.00
7407;BME280;3745;56.964;24.128;2023-12-20T12:00:10;99556.81;;;4.74;100.00
7407;BME280;3745;56.964;24.128;2023-12-20T12:02:37;99551.09;;;4.79;100.00
7407;BME280;3745;56.964;24.128;2023-12-20T12:05:03;99358.75;;;3.58;100.00
7407;BME280;3745;56.964;24.128;2023-12-20T12:07:31;99514.84;;;4.59;100.00
7407;BME280;3745;56.964;24.128;2023-12-20T12:09:57;99346.97;;;3.51;100.00
7407;BME280;3745;56.964;24.128;2023-12-20T12:12:24;99441.19;;;3.99;100.00
7407;BME280;3745;56.964;24.128;2023-12-20T12:14:55;99397.50;;;3.80;100.00
7407;BME280;3745;56.964;24.128;2023-12-20T12:17:23;99527.31;;;4.56;100.00
7407;BME280;3745;56.964;24.128;2023-12-20T12:19:49;99424.22;;;3.82;100.00
7407;BME280;3745;56.964;24.128;2023-12-20T12:22:15;99353.31;;;3.34;100.00
7407;BME280;3745;56.964;24.128;2023-12-20T12:24:43;99446.09;;;3.93;100.00
7407;BME280;3745;56.964;24.128;2023-12-20T12:27:10;99302.88;;;3.10;100.00
7407;BME280;3745;56.964;24.128;2023-12-20T12:29:37;99517.03;;;4.41;100.00
7407;BME280;3745;56.964;24.128;2023-12-20T12:32:07;99527.09;;;4.44;100.00
7407;BME280;3745;56.964;24.128;2023-12-20T12:34:33;99476.41;;;4.08;100.00
7407;BME280;3745;56.964;24.128;2023-12-20T12:36:59;99467.06;;;3.99;100.00
7407;BME280;3745;56.964;24.128;2023-12-20T12:39:25;99332.31;;;3.24;100.00
7407;BME280;3745;56.964;24.128;2023-12-20T12:41:51;99463.19;;;4.15;100.00
7407;BME280;3745;56.964;24.128;2023-12-20T12:44:17;99501.91;;;4.35;100.00
7407;BME280;3745;56.964;24.128;2023-12-20T12:46:46;99512.03;;;4.41;100.00
7407;BME280;3745;56.964;24.128;2023-12-20T12:49:12;99395.91;;;3.83;100.00
7407;BME280;3745;56.964;24.128;2023-12-20T12:51:38;99496.41;;;4.56;100.00
7407;BME280;3745;56.964;24.128;2023-12-20T12:54:05;99333.13;;;3.70;100.00
7407;BME280;3745;56.964;24.128;2023-12-20T12:56:31;99468.84;;;4.54;100.00
7407;BME280;3745;56.964;24.128;2023-12-20T12:58:57;99474.66;;;4.53;100.00
7407;BME280;3745;56.964;24.128;2023-12-20T13:01:22;99372.78;;;3.97;100.00
7407;BME280;3745;56.964;24.128;2023-12-20T13:03:48;99274.22;;;3.38;100.00
7407;BME280;3745;56.964;24.128;2023-12-20T13:06:13;99472.31;;;4.62;100.00
7407;BME280;3745;56.964;24.128;2023-12-20T13:08:39;99474.00;;;4.63;100.00
7407;BME280;3745;56.964;24.128;2023-12-20T13:11:06;99474.03;;;4.66;100.00
7407;BME280;3745;56.964;24.128;2023-12-20T13:13:32;99322.25;;;3.69;100.00
7407;BME280;3745;56.964;24.128;2023-12-20T13:15:58;99433.53;;;4.39;100.00
7407;BME280;3745;56.964;24.128;2023-12-20T13:18:24;99423.38;;;4.30;100.00
7407;BME280;3745;56.964;24.128;2023-12-20T13:20:49;99297.00;;;3.54;100.00